createdAt,value
2023-03-26T00:00:12.292Z,0.00
2023-03-26T00:00:42.764Z,0.00
2023-03-26T00:01:13.629Z,0.00
2023-03-26T00:01:44.332Z,0.00
2023-03-26T00:02:15.556Z,0.00
2023-03-26T00:02:46.561Z,0.00
2023-03-26T00:03:17.557Z,0.00
2023-03-26T00:03:48.591Z,0.00
2023-03-26T00:04:20.341Z,0.00
2023-03-26T00:04:50.672Z,0.00
2023-03-26T00:05:22.312Z,0.00
2023-03-26T00:05:52.435Z,0.00
2023-03-26T00:06:23.361Z,0.00
2023-03-26T00:06:54.648Z,0.00
2023-03-26T00:07:25.626Z,0.00
2023-03-26T00:07:56.789Z,0.00
2023-03-26T00:08:27.757Z,0.00
2023-03-26T00:08:58.742Z,0.00
2023-03-26T00:09:30.061Z,0.00
2023-03-26T00:10:01.088Z,0.00
2023-03-26T00:10:31.662Z,0.00
2023-03-26T00:11:02.688Z,0.00
2023-03-26T00:11:33.745Z,0.00
2023-03-26T00:12:04.543Z,0.00
2023-03-26T00:12:35.401Z,0.00
2023-03-26T00:13:06.599Z,0.00
2023-03-26T00:13:37.504Z,0.00
2023-03-26T00:14:08.641Z,0.00
2023-03-26T00:14:39.740Z,0.00
2023-03-26T00:15:11.108Z,0.00
2023-03-26T00:15:41.569Z,0.00
2023-03-26T00:16:12.536Z,0.00
2023-03-26T00:16:43.790Z,0.00
2023-03-26T00:17:14.619Z,0.00
2023-03-26T00:17:45.754Z,0.00
2023-03-26T00:18:16.239Z,0.00
2023-03-26T00:18:47.681Z,0.00
2023-03-26T00:19:18.688Z,0.00
2023-03-26T00:19:49.929Z,0.00
2023-03-26T00:20:21.250Z,0.00
2023-03-26T00:20:51.697Z,0.00
2023-03-26T00:21:22.999Z,0.00
2023-03-26T00:21:53.756Z,0.00
2023-03-26T00:22:24.461Z,0.00
2023-03-26T00:22:55.720Z,0.00
2023-03-26T00:23:26.679Z,0.00
2023-03-26T00:23:57.584Z,0.00
2023-03-26T00:24:28.618Z,0.00
2023-03-26T00:24:59.617Z,0.00
2023-03-26T00:25:30.898Z,0.00
2023-03-26T00:26:03.663Z,0.00
2023-03-26T00:26:32.773Z,0.00
2023-03-26T00:27:06.097Z,0.00
2023-03-26T00:27:34.584Z,0.00
2023-03-26T00:28:05.922Z,0.00
2023-03-26T00:28:36.669Z,0.00
2023-03-26T00:29:08.216Z,0.00
2023-03-26T00:29:38.704Z,0.00
2023-03-26T00:30:10.491Z,0.00
2023-03-26T00:30:40.418Z,0.00
2023-03-26T00:31:11.690Z,0.00
2023-03-26T00:31:42.850Z,0.00
2023-03-26T00:32:13.642Z,0.00
2023-03-26T00:32:44.503Z,0.00
2023-03-26T00:33:15.791Z,0.00
2023-03-26T00:33:46.623Z,0.00
2023-03-26T00:34:17.749Z,0.00
2023-03-26T00:34:48.531Z,0.00
2023-03-26T00:35:19.885Z,0.00
2023-03-26T00:35:50.460Z,0.00
2023-03-26T00:36:22.047Z,0.00
2023-03-26T00:36:52.506Z,0.00
2023-03-26T00:37:23.662Z,0.00
2023-03-26T00:37:54.593Z,0.00
2023-03-26T00:38:25.764Z,0.00
2023-03-26T00:38:56.330Z,0.00
2023-03-26T00:39:27.513Z,0.00
2023-03-26T00:40:00.818Z,0.00
2023-03-26T00:40:30.320Z,0.00
2023-03-26T00:41:00.732Z,0.00
2023-03-26T00:41:31.644Z,0.00
2023-03-26T00:42:02.833Z,0.00
2023-03-26T00:42:33.644Z,0.00
2023-03-26T00:43:04.545Z,0.00
2023-03-26T00:43:35.786Z,0.00
2023-03-26T00:44:06.709Z,0.00
2023-03-26T00:44:37.474Z,0.00
2023-03-26T00:45:09.249Z,0.00
2023-03-26T00:45:39.710Z,0.00
2023-03-26T00:46:11.211Z,0.00
2023-03-26T00:46:41.767Z,0.00
2023-03-26T00:47:12.766Z,0.00
2023-03-26T00:47:43.451Z,0.00
2023-03-26T00:48:14.786Z,0.00
2023-03-26T00:48:46.230Z,0.00
2023-03-26T00:49:16.688Z,0.00
2023-03-26T00:49:47.826Z,0.00
2023-03-26T00:50:19.164Z,0.00
2023-03-26T00:50:49.852Z,0.00
2023-03-26T00:51:20.627Z,0.00
2023-03-26T00:51:51.757Z,0.00
2023-03-26T00:52:22.428Z,0.00
2023-03-26T00:52:53.874Z,0.00
2023-03-26T00:53:24.628Z,0.00
2023-03-26T00:53:55.679Z,0.00
2023-03-26T00:54:27.060Z,0.00
2023-03-26T00:54:57.735Z,0.00
2023-03-26T00:55:29.348Z,0.00
2023-03-26T00:55:59.715Z,0.00
2023-03-26T00:56:30.677Z,0.00
2023-03-26T00:57:01.874Z,0.00
2023-03-26T00:57:36.238Z,0.00
2023-03-26T00:58:03.445Z,0.00
2023-03-26T00:58:35.889Z,0.00
2023-03-26T00:59:05.822Z,0.00
2023-03-26T00:59:38.554Z,0.00
2023-03-26T01:00:08.109Z,0.00
2023-03-26T01:00:38.748Z,0.00
2023-03-26T01:01:09.719Z,0.00
2023-03-26T01:01:40.795Z,0.00
2023-03-26T01:02:11.589Z,0.00
2023-03-26T01:02:42.874Z,0.00
2023-03-26T01:03:21.896Z,0.00
2023-03-26T01:03:53.028Z,0.00
2023-03-26T01:04:15.818Z,0.00
2023-03-26T01:04:47.129Z,0.00
2023-03-26T01:05:18.176Z,0.00
2023-03-26T01:05:48.732Z,0.00
2023-03-26T01:06:20.187Z,0.00
2023-03-26T01:06:50.888Z,0.00
2023-03-26T01:07:21.797Z,0.00
2023-03-26T01:07:52.866Z,0.00
2023-03-26T01:08:23.496Z,0.00
2023-03-26T01:08:54.701Z,0.00
2023-03-26T01:09:25.738Z,0.00
2023-03-26T01:09:56.752Z,0.00
2023-03-26T01:10:28.031Z,0.00
2023-03-26T01:10:58.708Z,0.00
2023-03-26T01:11:29.706Z,0.00
2023-03-26T01:12:01.199Z,0.00
2023-03-26T01:12:32.181Z,0.00
2023-03-26T01:13:02.701Z,0.00
2023-03-26T01:13:33.716Z,0.00
2023-03-26T01:14:04.548Z,0.00
2023-03-26T01:14:35.716Z,0.00
2023-03-26T01:15:07.300Z,0.00
2023-03-26T01:15:37.731Z,0.00
2023-03-26T01:16:08.655Z,0.00
2023-03-26T01:16:39.706Z,0.00
2023-03-26T01:17:11.031Z,0.00
2023-03-26T01:17:41.937Z,0.00
2023-03-26T01:18:13.165Z,0.00
2023-03-26T01:18:43.967Z,0.00
2023-03-26T01:19:14.897Z,0.00
2023-03-26T01:19:46.050Z,0.00
2023-03-26T01:20:17.203Z,0.00
2023-03-26T01:20:48.124Z,0.00
2023-03-26T01:21:18.737Z,0.00
2023-03-26T01:21:49.864Z,0.00
2023-03-26T01:22:20.799Z,0.00
2023-03-26T01:22:51.764Z,0.00
2023-03-26T01:23:22.970Z,0.00
2023-03-26T01:23:53.752Z,0.00
2023-03-26T01:24:24.771Z,0.00
2023-03-26T01:24:55.862Z,0.00
2023-03-26T01:25:27.012Z,0.00
2023-03-26T01:25:57.747Z,0.00
2023-03-26T01:26:28.820Z,0.00
2023-03-26T01:26:59.842Z,0.00
2023-03-26T01:27:30.724Z,0.00
2023-03-26T01:28:01.783Z,0.00
2023-03-26T01:28:32.730Z,0.00
2023-03-26T01:29:05.648Z,0.00
2023-03-26T01:29:35.054Z,0.00
2023-03-26T01:30:08.188Z,0.00
2023-03-26T01:30:37.050Z,0.00
2023-03-26T01:31:07.746Z,0.00
2023-03-26T01:31:38.822Z,0.00
2023-03-26T01:32:09.634Z,0.00
2023-03-26T01:32:41.029Z,0.00
2023-03-26T01:33:11.688Z,0.00
2023-03-26T01:33:43.034Z,0.00
2023-03-26T01:34:13.865Z,0.00
2023-03-26T01:34:44.893Z,0.00
2023-03-26T01:35:16.106Z,0.00
2023-03-26T01:35:47.111Z,0.00
2023-03-26T01:36:17.918Z,0.00
2023-03-26T01:36:49.183Z,0.00
2023-03-26T01:37:19.924Z,0.00
2023-03-26T01:37:50.577Z,0.00
2023-03-26T01:38:21.616Z,0.00
2023-03-26T01:38:53.004Z,0.00
2023-03-26T01:39:23.791Z,0.00
2023-03-26T01:39:54.930Z,0.00
2023-03-26T01:40:26.706Z,0.00
2023-03-26T01:40:56.804Z,0.00
2023-03-26T01:41:27.788Z,0.00
2023-03-26T01:41:58.890Z,0.00
2023-03-26T01:42:29.904Z,0.00
2023-03-26T01:43:00.977Z,0.00
2023-03-26T01:43:31.875Z,0.00
2023-03-26T01:44:02.911Z,0.00
2023-03-26T01:44:33.987Z,0.00
2023-03-26T01:45:05.338Z,0.00
2023-03-26T01:45:35.905Z,0.00
2023-03-26T01:46:07.068Z,0.00
2023-03-26T01:46:38.480Z,0.00
2023-03-26T01:47:08.948Z,0.00
2023-03-26T01:47:39.721Z,0.00
2023-03-26T01:48:10.682Z,0.00
2023-03-26T01:48:41.629Z,0.00
2023-03-26T01:49:13.273Z,0.00
2023-03-26T01:49:43.629Z,0.00
2023-03-26T01:50:15.864Z,0.00
2023-03-26T01:50:45.931Z,0.00
2023-03-26T01:51:17.092Z,0.00
2023-03-26T01:51:47.944Z,0.00
2023-03-26T01:52:18.957Z,0.00
2023-03-26T01:52:49.780Z,0.00
2023-03-26T01:53:20.832Z,0.00
2023-03-26T01:53:51.851Z,0.00
2023-03-26T01:54:23.267Z,0.00
2023-03-26T01:54:54.102Z,0.00
2023-03-26T01:55:25.143Z,0.00
2023-03-26T01:55:56.014Z,0.00
2023-03-26T01:56:26.687Z,0.00
2023-03-26T01:56:57.933Z,0.00
2023-03-26T01:57:28.865Z,0.00
2023-03-26T01:57:59.988Z,0.00
2023-03-26T01:58:31.072Z,0.00
2023-03-26T01:59:01.751Z,0.00
2023-03-26T01:59:33.093Z,0.00
2023-03-26T02:00:04.353Z,0.00
2023-03-26T02:00:37.345Z,0.00
2023-03-26T02:01:05.751Z,0.00
2023-03-26T02:01:38.849Z,0.00
2023-03-26T02:02:08.492Z,0.00
2023-03-26T02:02:57.788Z,0.00
2023-03-26T02:03:40.954Z,0.00
2023-03-26T02:04:11.827Z,0.00
2023-03-26T02:04:43.021Z,0.00
2023-03-26T02:05:14.330Z,0.00
2023-03-26T02:05:45.060Z,0.00
2023-03-26T02:06:16.042Z,0.00
2023-03-26T02:06:47.065Z,0.00
2023-03-26T02:07:18.470Z,0.00
2023-03-26T02:07:48.951Z,0.00
2023-03-26T02:08:20.168Z,0.00
2023-03-26T02:08:51.026Z,0.00
2023-03-26T02:09:21.831Z,0.00
2023-03-26T02:09:52.735Z,0.00
2023-03-26T02:10:24.063Z,0.00
2023-03-26T02:10:54.712Z,0.00
2023-03-26T02:11:56.928Z,0.00
2023-03-26T02:12:28.203Z,0.00
2023-03-26T02:12:59.024Z,0.00
2023-03-26T02:13:30.092Z,0.00
2023-03-26T02:14:01.023Z,0.00
2023-03-26T02:14:31.814Z,0.00
2023-03-26T02:15:03.516Z,0.00
2023-03-26T02:15:34.910Z,0.00
2023-03-26T02:16:04.950Z,0.00
2023-03-26T02:16:35.772Z,0.00
2023-03-26T02:17:07.019Z,0.00
2023-03-26T02:17:38.272Z,0.00
2023-03-26T02:18:08.808Z,0.00
2023-03-26T02:18:39.739Z,0.00
2023-03-26T02:19:10.737Z,0.00
2023-03-26T02:19:41.778Z,0.00
2023-03-26T02:20:13.288Z,0.00
2023-03-26T02:20:43.761Z,0.00
2023-03-26T02:21:14.830Z,0.00
2023-03-26T02:21:46.076Z,0.00
2023-03-26T02:22:17.178Z,0.00
2023-03-26T02:22:47.710Z,0.00
2023-03-26T02:23:19.005Z,0.00
2023-03-26T02:23:50.008Z,0.00
2023-03-26T02:24:20.783Z,0.00
2023-03-26T02:24:52.142Z,0.00
2023-03-26T02:25:23.424Z,0.00
2023-03-26T02:25:54.041Z,0.00
2023-03-26T02:26:25.186Z,0.00
2023-03-26T02:26:55.826Z,0.00
2023-03-26T02:27:26.881Z,0.00
2023-03-26T02:27:57.920Z,0.00
2023-03-26T02:28:28.892Z,0.00
2023-03-26T02:28:59.900Z,0.00
2023-03-26T02:29:30.776Z,0.00
2023-03-26T02:30:03.026Z,0.00
2023-03-26T02:30:32.738Z,0.00
2023-03-26T02:31:04.080Z,0.00
2023-03-26T02:31:35.137Z,0.00
2023-03-26T02:32:06.785Z,0.00
2023-03-26T02:32:37.026Z,0.00
2023-03-26T02:33:09.960Z,0.00
2023-03-26T02:33:39.045Z,0.00
2023-03-26T02:34:10.424Z,0.00
2023-03-26T02:34:40.991Z,0.00
2023-03-26T02:35:12.222Z,0.00
2023-03-26T02:35:43.168Z,0.00
2023-03-26T02:36:14.040Z,0.00
2023-03-26T02:36:45.669Z,0.00
2023-03-26T02:37:16.040Z,0.00
2023-03-26T02:37:46.930Z,0.00
2023-03-26T02:38:18.041Z,0.00
2023-03-26T02:38:49.062Z,0.00
2023-03-26T02:39:19.980Z,0.00
2023-03-26T02:39:51.023Z,0.00
2023-03-26T02:40:22.418Z,0.00
2023-03-26T02:40:53.063Z,0.00
2023-03-26T02:41:24.265Z,0.00
2023-03-26T02:41:55.207Z,0.00
2023-03-26T02:42:26.381Z,0.00
2023-03-26T02:42:56.791Z,0.00
2023-03-26T02:43:27.746Z,0.00
2023-03-26T02:43:58.824Z,0.00
2023-03-26T02:44:30.419Z,0.00
2023-03-26T02:45:01.906Z,0.00
2023-03-26T02:45:32.095Z,0.00
2023-03-26T02:46:03.203Z,0.00
2023-03-26T02:46:33.920Z,0.00
2023-03-26T02:47:05.007Z,0.00
2023-03-26T02:47:36.378Z,0.00
2023-03-26T02:48:07.028Z,0.00
2023-03-26T02:48:38.225Z,0.00
2023-03-26T02:49:08.981Z,0.00
2023-03-26T02:49:40.022Z,0.00
2023-03-26T02:50:12.200Z,0.00
2023-03-26T02:50:42.209Z,0.00
2023-03-26T02:51:13.207Z,0.00
2023-03-26T02:51:43.802Z,0.00
2023-03-26T02:52:14.787Z,0.00
2023-03-26T02:52:46.623Z,0.00
2023-03-26T02:53:17.057Z,0.00
2023-03-26T02:53:48.102Z,0.00
2023-03-26T02:54:19.229Z,0.00
2023-03-26T02:54:50.038Z,0.00
2023-03-26T02:55:21.264Z,0.00
2023-03-26T02:55:52.082Z,0.00
2023-03-26T02:56:23.052Z,0.00
2023-03-26T02:56:53.932Z,0.00
2023-03-26T02:57:25.242Z,0.00
2023-03-26T02:57:56.021Z,0.00
2023-03-26T02:58:27.266Z,0.00
2023-03-26T02:58:58.237Z,0.00
2023-03-26T02:59:29.010Z,0.00
2023-03-26T03:00:00.026Z,0.00
2023-03-26T03:00:31.929Z,0.00
2023-03-26T03:01:02.209Z,0.00
2023-03-26T03:01:33.203Z,0.00
2023-03-26T03:02:04.316Z,0.00
2023-03-26T03:02:35.439Z,0.00
2023-03-26T03:03:06.074Z,0.00
2023-03-26T03:03:38.839Z,0.00
2023-03-26T03:04:08.079Z,0.00
2023-03-26T03:04:40.398Z,0.00
2023-03-26T03:05:10.400Z,0.00
2023-03-26T03:05:40.952Z,0.00
2023-03-26T03:06:11.924Z,0.00
2023-03-26T03:06:43.207Z,0.00
2023-03-26T03:07:13.958Z,0.00
2023-03-26T03:07:45.706Z,0.00
2023-03-26T03:08:16.031Z,0.00
2023-03-26T03:08:46.881Z,0.00
2023-03-26T03:09:17.964Z,0.00
2023-03-26T03:09:49.255Z,0.00
2023-03-26T03:10:20.540Z,0.00
2023-03-26T03:10:50.950Z,0.00
2023-03-26T03:11:21.942Z,0.00
2023-03-26T03:11:53.245Z,0.00
2023-03-26T03:12:23.988Z,0.00
2023-03-26T03:12:54.856Z,0.00
2023-03-26T03:13:25.988Z,0.00
2023-03-26T03:13:57.260Z,0.00
2023-03-26T03:14:28.031Z,0.00
2023-03-26T03:14:59.062Z,0.00
2023-03-26T03:15:30.594Z,0.00
2023-03-26T03:16:01.331Z,0.00
2023-03-26T03:16:32.296Z,0.00
2023-03-26T03:17:02.971Z,0.00
2023-03-26T03:17:34.043Z,0.00
2023-03-26T03:18:05.076Z,0.00
2023-03-26T03:18:35.951Z,0.00
2023-03-26T03:19:07.182Z,0.00
2023-03-26T03:19:37.888Z,0.00
2023-03-26T03:20:09.539Z,0.00
2023-03-26T03:20:39.870Z,0.00
2023-03-26T03:21:11.324Z,0.00
2023-03-26T03:21:42.001Z,0.00
2023-03-26T03:22:13.253Z,0.00
2023-03-26T03:22:44.186Z,0.00
2023-03-26T03:23:15.104Z,0.00
2023-03-26T03:23:46.381Z,0.00
2023-03-26T03:24:17.509Z,0.00
2023-03-26T03:24:47.855Z,0.00
2023-03-26T03:25:19.799Z,0.00
2023-03-26T03:25:50.000Z,0.00
2023-03-26T03:26:21.045Z,0.00
2023-03-26T03:26:51.963Z,0.00
2023-03-26T03:27:22.991Z,0.00
2023-03-26T03:27:54.065Z,0.00
2023-03-26T03:28:24.924Z,0.00
2023-03-26T03:28:55.897Z,0.00
2023-03-26T03:29:27.163Z,0.00
2023-03-26T03:29:58.130Z,0.00
2023-03-26T03:30:29.826Z,0.00
2023-03-26T03:31:00.252Z,0.00
2023-03-26T03:31:31.217Z,0.00
2023-03-26T03:32:02.044Z,0.00
2023-03-26T03:32:33.103Z,0.00
2023-03-26T03:33:04.436Z,0.00
2023-03-26T03:33:34.990Z,0.00
2023-03-26T03:34:06.025Z,0.00
2023-03-26T03:34:37.337Z,0.00
2023-03-26T03:35:09.849Z,0.00
2023-03-26T03:35:39.094Z,0.00
2023-03-26T03:36:20.258Z,0.00
2023-03-26T03:36:41.060Z,0.00
2023-03-26T03:37:16.505Z,0.00
2023-03-26T03:37:42.963Z,0.00
2023-03-26T03:38:14.486Z,0.00
2023-03-26T03:38:45.245Z,0.00
2023-03-26T03:39:16.066Z,0.00
2023-03-26T03:39:47.061Z,0.00
2023-03-26T03:40:18.578Z,0.00
2023-03-26T03:40:49.138Z,0.00
2023-03-26T03:41:20.055Z,0.00
2023-03-26T03:41:50.988Z,0.00
2023-03-26T03:42:22.341Z,0.00
2023-03-26T03:42:53.222Z,0.00
2023-03-26T03:43:24.052Z,0.00
2023-03-26T03:43:55.321Z,0.00
2023-03-26T03:44:26.601Z,0.00
2023-03-26T03:44:56.972Z,0.00
2023-03-26T03:45:29.236Z,0.00
2023-03-26T03:45:59.124Z,0.00
2023-03-26T03:46:30.131Z,0.00
2023-03-26T03:47:01.410Z,0.00
2023-03-26T03:47:32.031Z,0.00
2023-03-26T03:48:03.139Z,0.00
2023-03-26T03:48:34.118Z,0.00
2023-03-26T03:49:05.062Z,0.00
2023-03-26T03:49:35.993Z,0.00
2023-03-26T03:50:07.220Z,0.00
2023-03-26T03:50:38.918Z,0.00
2023-03-26T03:51:09.489Z,0.00
2023-03-26T03:51:40.283Z,0.00
2023-03-26T03:52:11.098Z,0.00
2023-03-26T03:52:42.419Z,0.00
2023-03-26T03:53:13.375Z,0.00
2023-03-26T03:53:44.117Z,0.00
2023-03-26T03:54:15.063Z,0.00
2023-03-26T03:54:46.490Z,0.00
2023-03-26T03:55:17.617Z,0.00
2023-03-26T03:55:48.280Z,0.00
2023-03-26T03:56:19.487Z,0.00
2023-03-26T03:56:50.127Z,0.00
2023-03-26T03:57:21.332Z,0.00
2023-03-26T03:57:52.363Z,0.00
2023-03-26T03:58:23.405Z,0.00
2023-03-26T03:58:54.411Z,0.00
2023-03-26T03:59:25.491Z,0.00
2023-03-26T03:59:56.170Z,0.00
2023-03-26T04:00:27.906Z,0.00
2023-03-26T04:00:58.516Z,0.00
2023-03-26T04:01:29.336Z,0.00
2023-03-26T04:02:00.297Z,0.00
2023-03-26T04:02:31.457Z,0.00
2023-03-26T04:03:02.528Z,0.00
2023-03-26T04:03:34.551Z,0.00
2023-03-26T04:04:04.500Z,0.00
2023-03-26T04:04:35.628Z,0.00
2023-03-26T04:05:06.653Z,0.00
2023-03-26T04:05:37.205Z,0.00
2023-03-26T04:06:08.398Z,0.00
2023-03-26T04:06:40.038Z,0.00
2023-03-26T04:07:10.491Z,0.00
2023-03-26T04:07:43.462Z,0.00
2023-03-26T04:08:12.330Z,0.00
2023-03-26T04:08:43.391Z,0.00
2023-03-26T04:09:14.314Z,0.00
2023-03-26T04:09:45.369Z,0.00
2023-03-26T04:10:16.886Z,0.00
2023-03-26T04:10:47.346Z,0.00
2023-03-26T04:11:18.669Z,0.00
2023-03-26T04:11:49.370Z,0.00
2023-03-26T04:12:20.410Z,0.00
2023-03-26T04:12:51.177Z,0.00
2023-03-26T04:13:22.287Z,0.00
2023-03-26T04:13:53.295Z,0.00
2023-03-26T04:14:24.374Z,0.00
2023-03-26T04:14:55.427Z,0.00
2023-03-26T04:15:27.030Z,0.00
2023-03-26T04:15:57.785Z,0.00
2023-03-26T04:16:28.404Z,0.00
2023-03-26T04:16:59.528Z,0.00
2023-03-26T04:17:30.176Z,0.00
2023-03-26T04:18:01.459Z,0.00
2023-03-26T04:18:32.276Z,0.00
2023-03-26T04:19:03.809Z,0.00
2023-03-26T04:19:34.329Z,0.00
2023-03-26T04:20:05.806Z,0.00
2023-03-26T04:20:36.257Z,0.00
2023-03-26T04:21:07.631Z,0.00
2023-03-26T04:21:38.222Z,0.00
2023-03-26T04:22:09.723Z,0.00
2023-03-26T04:22:40.124Z,0.00
2023-03-26T04:23:11.220Z,0.00
2023-03-26T04:23:42.632Z,0.00
2023-03-26T04:24:13.304Z,0.00
2023-03-26T04:24:44.415Z,0.00
2023-03-26T04:25:15.842Z,0.00
2023-03-26T04:25:46.382Z,0.00
2023-03-26T04:26:17.133Z,0.00
2023-03-26T04:26:48.374Z,0.00
2023-03-26T04:27:19.155Z,0.00
2023-03-26T04:27:50.240Z,0.00
2023-03-26T04:28:21.341Z,0.00
2023-03-26T04:28:52.598Z,0.00
2023-03-26T04:29:23.196Z,0.00
2023-03-26T04:29:54.571Z,0.00
2023-03-26T04:30:26.445Z,0.00
2023-03-26T04:30:56.688Z,0.00
2023-03-26T04:31:27.432Z,0.00
2023-03-26T04:31:58.517Z,0.00
2023-03-26T04:32:29.582Z,0.00
2023-03-26T04:33:00.290Z,0.00
2023-03-26T04:33:31.310Z,0.00
2023-03-26T04:34:02.571Z,0.00
2023-03-26T04:34:33.751Z,0.00
2023-03-26T04:35:04.396Z,0.00
2023-03-26T04:35:35.208Z,0.00
2023-03-26T04:36:06.676Z,0.00
2023-03-26T04:36:37.493Z,0.00
2023-03-26T04:37:08.550Z,0.00
2023-03-26T04:37:39.661Z,0.00
2023-03-26T04:38:12.049Z,0.00
2023-03-26T04:38:41.690Z,0.00
2023-03-26T04:39:14.918Z,0.00
2023-03-26T04:39:43.516Z,0.00
2023-03-26T04:40:16.168Z,0.00
2023-03-26T04:40:45.459Z,0.00
2023-03-26T04:41:16.414Z,0.00
2023-03-26T04:41:47.622Z,0.00
2023-03-26T04:42:18.235Z,0.00
2023-03-26T04:42:49.127Z,0.00
2023-03-26T04:43:20.429Z,0.00
2023-03-26T04:43:51.241Z,0.00
2023-03-26T04:44:22.518Z,0.00
2023-03-26T04:44:53.215Z,0.00
2023-03-26T04:45:24.850Z,0.00
2023-03-26T04:45:55.595Z,0.00
2023-03-26T04:46:26.503Z,0.00
2023-03-26T04:46:57.221Z,0.00
2023-03-26T04:47:28.237Z,0.00
2023-03-26T04:47:59.276Z,0.00
2023-03-26T04:48:30.347Z,0.00
2023-03-26T04:49:01.417Z,0.00
2023-03-26T04:49:32.418Z,0.00
2023-03-26T04:50:03.794Z,0.00
2023-03-26T04:50:34.556Z,0.00
2023-03-26T04:51:05.209Z,0.00
2023-03-26T04:51:36.286Z,0.00
2023-03-26T04:52:07.244Z,0.00
2023-03-26T04:52:38.313Z,0.00
2023-03-26T04:53:10.026Z,0.00
2023-03-26T04:53:41.020Z,0.00
2023-03-26T04:54:11.306Z,0.00
2023-03-26T04:54:42.612Z,0.00
2023-03-26T04:55:13.592Z,0.00
2023-03-26T04:55:44.426Z,0.00
2023-03-26T04:56:15.267Z,0.00
2023-03-26T04:56:46.436Z,0.00
2023-03-26T04:57:17.314Z,0.00
2023-03-26T04:57:48.289Z,0.00
2023-03-26T04:58:19.324Z,0.00
2023-03-26T04:58:50.465Z,0.00
2023-03-26T04:59:21.826Z,0.00
2023-03-26T04:59:52.582Z,0.00
2023-03-26T05:00:24.148Z,0.00
2023-03-26T05:00:54.415Z,0.00
2023-03-26T05:01:25.484Z,0.00
2023-03-26T05:01:56.370Z,0.00
2023-03-26T05:02:27.440Z,0.00
2023-03-26T05:02:58.359Z,0.00
2023-03-26T05:03:29.185Z,0.00
2023-03-26T05:04:00.316Z,0.00
2023-03-26T05:04:31.497Z,0.00
2023-03-26T05:05:02.465Z,0.00
2023-03-26T05:05:33.505Z,0.00
2023-03-26T05:06:04.509Z,0.00
2023-03-26T05:06:35.615Z,0.00
2023-03-26T05:07:06.284Z,0.00
2023-03-26T05:07:37.721Z,0.00
2023-03-26T05:08:08.473Z,0.00
2023-03-26T05:08:39.835Z,0.00
2023-03-26T05:09:10.663Z,0.00
2023-03-26T05:09:42.762Z,0.00
2023-03-26T05:10:13.094Z,0.00
2023-03-26T05:10:45.128Z,0.00
2023-03-26T05:11:14.522Z,0.00
2023-03-26T05:11:45.718Z,0.00
2023-03-26T05:12:16.580Z,0.00
2023-03-26T05:12:47.305Z,0.00
2023-03-26T05:13:18.509Z,0.00
2023-03-26T05:13:49.674Z,0.00
2023-03-26T05:14:20.641Z,0.00
2023-03-26T05:14:51.686Z,0.00
2023-03-26T05:15:23.279Z,0.00
2023-03-26T05:15:53.235Z,0.00
2023-03-26T05:16:24.265Z,0.00
2023-03-26T05:16:55.453Z,0.00
2023-03-26T05:17:26.557Z,0.00
2023-03-26T05:17:57.551Z,0.00
2023-03-26T05:18:28.524Z,0.00
2023-03-26T05:18:59.750Z,0.00
2023-03-26T05:19:30.523Z,0.00
2023-03-26T05:20:01.655Z,0.00
2023-03-26T05:20:32.460Z,0.00
2023-03-26T05:21:03.289Z,0.00
2023-03-26T05:21:34.693Z,0.36
2023-03-26T05:22:05.348Z,0.36
2023-03-26T05:22:38.093Z,0.36
2023-03-26T05:23:07.471Z,0.36
2023-03-26T05:23:38.561Z,0.00
2023-03-26T05:24:09.782Z,1.71
2023-03-26T05:24:40.456Z,1.22
2023-03-26T05:25:11.903Z,0.85
2023-03-26T05:25:42.745Z,1.22
2023-03-26T05:26:13.698Z,2.08
2023-03-26T05:26:44.656Z,2.08
2023-03-26T05:27:15.400Z,2.57
2023-03-26T05:27:46.422Z,2.57
2023-03-26T05:28:17.551Z,2.57
2023-03-26T05:28:48.603Z,2.57
2023-03-26T05:29:19.776Z,3.79
2023-03-26T05:29:50.416Z,2.94
2023-03-26T05:30:21.981Z,2.94
2023-03-26T05:30:52.827Z,2.94
2023-03-26T05:31:23.582Z,2.08
2023-03-26T05:31:54.633Z,3.43
2023-03-26T05:32:25.651Z,3.43
2023-03-26T05:32:56.700Z,3.43
2023-03-26T05:33:27.613Z,3.79
2023-03-26T05:33:58.742Z,4.77
2023-03-26T05:34:29.926Z,4.77
2023-03-26T05:35:00.626Z,5.14
2023-03-26T05:35:31.754Z,5.14
2023-03-26T05:36:02.773Z,5.14
2023-03-26T05:36:33.736Z,5.99
2023-03-26T05:37:04.542Z,5.99
2023-03-26T05:37:35.467Z,5.14
2023-03-26T05:38:06.655Z,5.63
2023-03-26T05:38:37.827Z,5.99
2023-03-26T05:39:08.996Z,6.48
2023-03-26T05:39:39.428Z,5.99
2023-03-26T05:40:11.245Z,6.85
2023-03-26T05:40:41.573Z,6.85
2023-03-26T05:41:16.918Z,6.85
2023-03-26T05:41:43.642Z,6.48
2023-03-26T05:42:15.699Z,7.34
2023-03-26T05:42:45.734Z,6.85
2023-03-26T05:43:16.644Z,7.34
2023-03-26T05:43:48.042Z,7.70
2023-03-26T05:44:18.630Z,7.34
2023-03-26T05:44:49.685Z,8.19
2023-03-26T05:45:21.251Z,8.19
2023-03-26T05:45:51.721Z,9.54
2023-03-26T05:46:22.515Z,9.54
2023-03-26T05:46:53.749Z,9.91
2023-03-26T05:47:24.523Z,10.39
2023-03-26T05:47:55.558Z,11.25
2023-03-26T05:48:26.705Z,11.25
2023-03-26T05:48:58.302Z,12.48
2023-03-26T05:49:28.724Z,12.11
2023-03-26T05:49:59.800Z,13.33
2023-03-26T05:50:31.055Z,13.82
2023-03-26T05:51:01.721Z,13.82
2023-03-26T05:51:33.061Z,14.31
2023-03-26T05:52:03.475Z,13.82
2023-03-26T05:52:35.295Z,14.31
2023-03-26T05:53:05.476Z,13.33
2023-03-26T05:53:36.594Z,13.33
2023-03-26T05:54:07.877Z,12.97
2023-03-26T05:54:38.783Z,12.97
2023-03-26T05:55:09.966Z,12.11
2023-03-26T05:55:41.026Z,11.25
2023-03-26T05:56:11.850Z,11.25
2023-03-26T05:56:43.040Z,12.11
2023-03-26T05:57:13.882Z,12.48
2023-03-26T05:57:44.694Z,12.48
2023-03-26T05:58:15.770Z,12.11
2023-03-26T05:58:46.513Z,12.97
2023-03-26T05:59:17.842Z,12.97
2023-03-26T05:59:48.835Z,12.97
2023-03-26T06:00:20.687Z,12.97
2023-03-26T06:00:50.535Z,13.82
2023-03-26T06:01:21.732Z,14.68
2023-03-26T06:01:52.808Z,15.17
2023-03-26T06:02:23.847Z,16.02
2023-03-26T06:02:56.637Z,16.88
2023-03-26T06:03:26.017Z,16.39
2023-03-26T06:03:57.306Z,16.39
2023-03-26T06:04:27.569Z,16.88
2023-03-26T06:04:58.518Z,16.88
2023-03-26T06:05:29.800Z,16.02
2023-03-26T06:06:00.489Z,16.39
2023-03-26T06:06:33.189Z,15.53
2023-03-26T06:07:02.772Z,15.17
2023-03-26T06:07:33.901Z,15.17
2023-03-26T06:08:04.543Z,13.82
2023-03-26T06:08:35.864Z,13.33
2023-03-26T06:09:07.293Z,13.33
2023-03-26T06:09:37.712Z,12.97
2023-03-26T06:10:08.680Z,12.97
2023-03-26T06:10:39.825Z,12.97
2023-03-26T06:11:10.794Z,12.97
2023-03-26T06:11:41.740Z,12.97
2023-03-26T06:12:12.861Z,13.33
2023-03-26T06:12:45.632Z,13.33
2023-03-26T06:13:14.779Z,12.97
2023-03-26T06:13:47.944Z,12.11
2023-03-26T06:14:17.071Z,10.77
2023-03-26T06:14:47.496Z,10.77
2023-03-26T06:15:19.559Z,9.54
2023-03-26T06:15:49.618Z,9.05
2023-03-26T06:16:27.242Z,8.19
2023-03-26T06:16:51.765Z,9.54
2023-03-26T06:17:22.843Z,9.54
2023-03-26T06:17:53.711Z,9.54
2023-03-26T06:18:24.630Z,10.77
2023-03-26T06:18:56.342Z,9.91
2023-03-26T06:19:27.147Z,10.77
2023-03-26T06:19:57.734Z,11.25
2023-03-26T06:20:29.392Z,10.39
2023-03-26T06:20:59.559Z,11.25
2023-03-26T06:21:30.661Z,11.62
2023-03-26T06:22:01.732Z,11.62
2023-03-26T06:22:32.893Z,11.25
2023-03-26T06:23:03.914Z,11.25
2023-03-26T06:23:35.396Z,10.77
2023-03-26T06:24:06.122Z,11.62
2023-03-26T06:24:36.961Z,10.77
2023-03-26T06:25:07.812Z,11.25
2023-03-26T06:25:38.562Z,11.25
2023-03-26T06:26:09.577Z,11.25
2023-03-26T06:26:40.507Z,12.11
2023-03-26T06:27:11.887Z,12.11
2023-03-26T06:27:42.902Z,12.48
2023-03-26T06:28:13.957Z,12.48
2023-03-26T06:28:44.605Z,12.11
2023-03-26T06:29:16.053Z,12.97
2023-03-26T06:29:46.619Z,12.48
2023-03-26T06:30:18.537Z,13.33
2023-03-26T06:30:48.779Z,12.97
2023-03-26T06:31:19.821Z,12.97
2023-03-26T06:31:50.572Z,13.33
2023-03-26T06:32:22.000Z,12.97
2023-03-26T06:32:52.942Z,13.33
2023-03-26T06:33:24.671Z,13.33
2023-03-26T06:33:54.882Z,13.82
2023-03-26T06:34:25.550Z,12.97
2023-03-26T06:34:56.856Z,13.33
2023-03-26T06:35:28.480Z,12.97
2023-03-26T06:35:58.650Z,12.97
2023-03-26T06:36:30.048Z,12.97
2023-03-26T06:37:00.854Z,12.11
2023-03-26T06:37:31.829Z,12.48
2023-03-26T06:38:03.004Z,12.48
2023-03-26T06:38:33.749Z,11.62
2023-03-26T06:39:07.537Z,12.11
2023-03-26T06:39:35.812Z,12.11
2023-03-26T06:40:07.356Z,11.62
2023-03-26T06:40:37.944Z,11.62
2023-03-26T06:41:08.623Z,10.77
2023-03-26T06:41:39.664Z,10.39
2023-03-26T06:42:11.156Z,10.77
2023-03-26T06:43:09.271Z,11.25
2023-03-26T06:43:12.630Z,12.48
2023-03-26T06:43:43.685Z,12.48
2023-03-26T06:44:16.506Z,13.82
2023-03-26T06:44:45.860Z,14.68
2023-03-26T06:45:18.946Z,14.68
2023-03-26T06:45:48.022Z,15.17
2023-03-26T06:46:19.808Z,15.17
2023-03-26T06:46:50.049Z,15.17
2023-03-26T06:47:21.423Z,14.68
2023-03-26T06:47:52.025Z,14.31
2023-03-26T06:48:22.792Z,13.33
2023-03-26T06:48:54.049Z,13.82
2023-03-26T06:49:25.214Z,14.31
2023-03-26T06:49:55.987Z,15.17
2023-03-26T06:50:27.014Z,14.68
2023-03-26T06:50:57.997Z,15.53
2023-03-26T06:51:28.940Z,15.53